George Bush Intercontinental Houston Airport
KIAH : now visible

Airfield :











YOU CAN JOIN US ON...

 
LOGIN :

Register | Disclaimer

   EN    FR    IT 

 









Legend :    VFR   Marginal VFR   IFR   Intensive IFR   Very Intensive IFR
Visi :
Ceiling :
>= 8 km
>= 3000ft
5 to 8 km
1000 to 3000 ft
1500m to 5 km
500 to 1000 ft
800 to 1500m
200 to 500 ft
< 800m
< 200 ft
Symbols :   Thunderstorms  Fog  Heavy snow  Heavy precipitations  Wind > 20 kt






- Airport Elevation : 97 ft
- IATA code : IAH


KIAH - George Bush Intercontinental Houston

CURRENT METAR :
  • 231718Z 33004KT 10SM -TSRA SCT030CB BKN075 BKN250 27/23 A3000 RMK AO2 TS FRQ LTGICCCCG N-NE MOV N P0034 T02720233

EXPIRED METARs :
  • 231653Z 18013G19KT 5SM -TSRA BKN030CB BKN080 29/23 A3001 RMK AO2 RAB43 TSB31 SLP159 TS FRQ LTGICCCCG NE-S MOV N P0000 T02940233
  • 231631Z 19010KT 10SM TS BKN030CB BKN080 33/25 A2999 RMK AO2 TSB31 TS OCNL LTGCG NE-SE MOV N T03280250
  • 231553Z VRB04KT 10SM BKN023 32/25 A2999 RMK AO2 LTG DSNT E RAB24E33 SLP154 CB DSNT E-S VCSH W-NW P0000 T03170250

TAF KIAH
Valid from the 23 at 18:00 until the 25 at 00:00 UTC


231726Z 2318/2424 18015KT P6SM -TSRA VCTS SCT030CB BKN080
FM231900 18008KT P6SM VCTS SCT040CB
FM232300 15008KT P6SM FEW040 SCT200
FM240800 VRB04KT P6SM SCT035 SCT120
FM241500 18008KT P6SM SCT030 SCT120
FM242000 16009KT P6SM VCTS SCT035CB BKN050
KZHU FIR / North America



MET'MAP, your aeronautical weather chart ! - Copyright ORBIFLY December 2007 - Disclaimer

ORBIFLY MET'MAP TEAM :

Programming & Development : Alexandra Zaïnal
Concept & original design : Baudouin d'Aumeries
Assistance for programming : Marc-Olivier Méhu
Technical & hardware support : Manuel Goepfert

Contact : metmap@orbifly.com




SOURCES & CREDITS :

   NOAA       Earth
Advisory